Time;durP1;ratioP1;P1;durP2;ratioP2;P2;SDS_P1;SDS_P2;PMS_P1;PMS_P2;Temp;Humidity;BMP_temperature;BMP_pressure;BME280_temperature;BME280_humidity;BME280_pressure;Samples;Min_cycle;Max_cycle;Signal;HPM_P1;HPM_P2
2023/12/15 00:00:50;;;;;;;0.50;0.50;;;8.00;69.90;;;;;;5071890;28;20064;-70
2023/12/15 00:03:16;;;;;;;0.50;0.50;;;8.00;69.90;;;;;;5071906;28;20039;-70
2023/12/15 00:05:41;;;;;;;0.85;0.85;;;8.10;69.90;;;;;;5072106;28;20044;-70
2023/12/15 00:08:07;;;;;;;0.82;0.82;;;8.10;70.00;;;;;;5074537;28;20561;-70
2023/12/15 00:10:32;;;;;;;1.67;1.45;;;8.20;70.00;;;;;;5091961;28;20059;-71
2023/12/15 00:12:58;;;;;;;0.82;0.82;;;8.20;70.00;;;;;;5091851;28;20395;-71
2023/12/15 00:15:23;;;;;;;1.45;1.35;;;8.30;70.20;;;;;;5092057;28;20498;-71
2023/12/15 00:17:49;;;;;;;0.75;0.75;;;8.30;70.40;;;;;;5090329;28;20043;-71
2023/12/15 00:20:14;;;;;;;1.08;1.08;;;8.40;70.30;;;;;;5072028;28;20451;-71
2023/12/15 00:22:40;;;;;;;0.55;0.55;;;8.50;70.20;;;;;;5089315;28;20043;-71
2023/12/15 00:25:06;;;;;;;1.00;0.98;;;8.50;70.20;;;;;;5053532;28;20060;-70
2023/12/15 00:27:31;;;;;;;1.13;1.13;;;8.60;70.20;;;;;;5071128;28;20118;-70
2023/12/15 00:29:57;;;;;;;1.10;1.05;;;8.60;70.30;;;;;;5071456;28;20032;-70
2023/12/15 00:32:23;;;;;;;1.20;0.95;;;8.70;70.10;;;;;;5071944;28;20115;-70
2023/12/15 00:34:49;;;;;;;0.80;0.77;;;8.70;70.00;;;;;;5071877;28;20070;-70
2023/12/15 00:37:14;;;;;;;0.80;0.80;;;8.70;70.10;;;;;;5091529;28;20103;-70
2023/12/15 00:39:40;;;;;;;1.70;1.60;;;8.80;70.10;;;;;;5091569;28;20429;-71
2023/12/15 00:42:05;;;;;;;1.48;1.38;;;8.80;70.30;;;;;;5092935;28;20081;-70
2023/12/15 00:44:32;;;;;;;1.02;1.02;;;8.80;70.30;;;;;;5095585;28;20386;-70
2023/12/15 00:46:58;;;;;;;1.15;1.15;;;8.90;70.30;;;;;;5092595;28;20506;-70
2023/12/15 00:49:24;;;;;;;2.45;2.25;;;8.90;70.30;;;;;;5095495;28;20028;-71
2023/12/15 00:51:53;;;;;;;0.75;0.75;;;8.90;70.20;;;;;;5091539;28;20055;-71
2023/12/15 00:54:18;;;;;;;0.80;0.80;;;9.00;70.00;;;;;;5087057;28;20115;-71
2023/12/15 00:56:44;;;;;;;3.10;1.98;;;9.00;70.20;;;;;;5095824;28;20052;-71
2023/12/15 00:59:09;;;;;;;1.67;1.58;;;9.00;70.30;;;;;;5077065;28;20029;-70
2023/12/15 01:01:34;;;;;;;1.48;1.38;;;9.10;70.20;;;;;;5074888;28;20029;-69
2023/12/15 01:04:00;;;;;;;0.60;0.60;;;9.20;70.30;;;;;;5074515;28;20052;-69
2023/12/15 01:06:25;;;;;;;1.38;1.27;;;9.20;70.40;;;;;;5074512;28;20025;-69
2023/12/15 01:08:51;;;;;;;0.60;0.60;;;9.20;70.50;;;;;;5074251;28;20068;-69
2023/12/15 01:11:16;;;;;;;0.82;0.82;;;9.30;70.60;;;;;;5091874;28;20402;-69
2023/12/15 01:13:42;;;;;;;1.52;1.42;;;9.30;70.50;;;;;;5094271;28;20032;-70
2023/12/15 01:16:08;;;;;;;1.02;1.02;;;9.30;70.40;;;;;;5094726;28;20020;-69
2023/12/15 01:18:33;;;;;;;2.45;2.25;;;9.40;70.50;;;;;;5094361;28;20103;-70
2023/12/15 01:20:59;;;;;;;1.35;1.25;;;9.40;70.50;;;;;;5093848;28;20041;-69
2023/12/15 01:23:24;;;;;;;8.38;2.10;;;9.50;70.10;;;;;;5093518;28;20047;-69
2023/12/15 01:25:50;;;;;;;1.25;1.20;;;9.40;70.20;;;;;;5093645;28;20028;-69
2023/12/15 01:28:15;;;;;;;2.28;2.08;;;9.50;70.30;;;;;;5093925;28;20046;-70
2023/12/15 01:30:41;;;;;;;1.65;1.38;;;9.50;70.20;;;;;;5094030;28;20111;-69
2023/12/15 01:33:06;;;;;;;1.90;1.52;;;9.50;70.40;;;;;;5092007;28;20050;-70
2023/12/15 01:35:32;;;;;;;1.65;1.55;;;9.50;70.20;;;;;;5088223;28;20368;-69
2023/12/15 01:37:57;;;;;;;1.77;1.67;;;9.50;70.00;;;;;;5073428;28;20032;-69
2023/12/15 01:40:23;;;;;;;1.35;1.33;;;9.50;70.20;;;;;;5073371;28;20443;-69
2023/12/15 01:42:48;;;;;;;1.15;1.13;;;9.50;70.20;;;;;;5073319;28;20036;-69
2023/12/15 01:45:14;;;;;;;1.35;1.30;;;9.60;70.20;;;;;;5073204;28;20024;-69
2023/12/15 01:47:39;;;;;;;1.80;1.70;;;9.50;70.20;;;;;;5073352;28;20028;-70
2023/12/15 01:50:08;;;;;;;2.40;2.20;;;9.50;70.50;;;;;;5055460;28;20024;-70
2023/12/15 01:52:34;;;;;;;1.75;1.65;;;9.60;70.50;;;;;;5093913;28;20058;-69
2023/12/15 01:55:00;;;;;;;1.73;1.63;;;9.60;70.20;;;;;;5092994;28;20129;-69
2023/12/15 01:57:25;;;;;;;2.15;1.95;;;9.60;70.20;;;;;;5093574;28;20032;-69
2023/12/15 01:59:51;;;;;;;2.75;2.53;;;9.60;70.30;;;;;;5092793;28;20291;-69
2023/12/15 02:02:17;;;;;;;1.48;1.27;;;9.60;70.30;;;;;;5084617;28;20028;-69
2023/12/15 02:04:43;;;;;;;1.30;1.23;;;9.70;70.30;;;;;;5092714;28;20046;-70
2023/12/15 02:07:09;;;;;;;1.10;1.10;;;9.60;70.30;;;;;;5085805;28;20032;-70
2023/12/15 02:09:37;;;;;;;13.75;2.15;;;9.60;69.90;;;;;;5092687;28;20479;-69
2023/12/15 02:12:03;;;;;;;1.50;1.40;;;9.60;69.90;;;;;;5094099;28;20038;-71
2023/12/15 02:14:29;;;;;;;2.05;1.50;;;9.60;70.00;;;;;;5075410;28;20474;-71
2023/12/15 02:16:54;;;;;;;1.05;1.05;;;9.50;69.80;;;;;;5101414;28;20022;-71
2023/12/15 02:19:20;;;;;;;0.70;0.70;;;9.50;69.70;;;;;;5104119;28;20032;-71
2023/12/15 02:21:46;;;;;;;3.60;2.65;;;9.50;69.70;;;;;;5096427;28;20019;-71
2023/12/15 02:24:11;;;;;;;5.05;2.20;;;9.50;69.60;;;;;;5096477;28;20104;-71
2023/12/15 02:26:37;;;;;;;2.42;2.15;;;9.40;69.60;;;;;;5090705;28;21092;-71
2023/12/15 02:29:02;;;;;;;0.73;0.73;;;9.40;69.60;;;;;;5094063;28;20075;-71
2023/12/15 02:31:27;;;;;;;1.77;1.52;;;9.50;69.80;;;;;;5093950;28;20651;-71
2023/12/15 02:33:53;;;;;;;0.80;0.80;;;9.50;70.00;;;;;;5095678;28;20038;-71
2023/12/15 02:36:23;;;;;;;1.05;1.00;;;9.50;69.90;;;;;;5088323;28;20063;-71
2023/12/15 02:38:49;;;;;;;2.38;2.17;;;9.50;70.00;;;;;;5093980;28;20434;-71
2023/12/15 02:41:15;;;;;;;4.43;2.85;;;9.50;70.20;;;;;;5093967;28;20039;-71
2023/12/15 02:43:41;;;;;;;1.13;1.13;;;9.50;70.10;;;;;;5095270;28;20032;-72
2023/12/15 02:46:06;;;;;;;1.23;1.20;;;9.60;70.20;;;;;;5093678;28;20035;-71
2023/12/15 02:48:32;;;;;;;0.90;0.90;;;9.60;70.40;;;;;;5092820;28;20051;-71
2023/12/15 02:50:58;;;;;;;1.48;1.38;;;9.60;70.40;;;;;;5092754;28;20036;-71
2023/12/15 02:53:24;;;;;;;1.25;1.17;;;9.70;70.40;;;;;;5094239;28;20119;-71
2023/12/15 02:55:50;;;;;;;1.13;1.13;;;9.70;70.30;;;;;;5093781;28;20078;-71
2023/12/15 02:58:18;;;;;;;2.25;2.03;;;9.70;70.40;;;;;;5093467;28;20028;-71
2023/12/15 03:00:46;;;;;;;1.17;1.15;;;9.70;70.60;;;;;;5092886;28;20479;-71
2023/12/15 03:03:12;;;;;;;9.52;2.85;;;9.80;70.30;;;;;;5093380;28;20495;-71
2023/12/15 03:05:37;;;;;;;0.75;0.75;;;9.80;69.90;;;;;;5093484;28;20061;-71
2023/12/15 03:08:03;;;;;;;1.05;1.05;;;9.80;70.20;;;;;;5093262;28;20119;-70
2023/12/15 03:10:28;;;;;;;0.82;0.82;;;9.80;70.20;;;;;;5092877;28;20441;-71
2023/12/15 03:12:54;;;;;;;1.35;1.25;;;9.80;70.30;;;;;;5092857;28;20530;-71
2023/12/15 03:15:19;;;;;;;3.90;1.40;;;9.80;70.50;;;;;;5092955;28;20028;-71
2023/12/15 03:17:45;;;;;;;1.33;1.23;;;9.80;70.30;;;;;;5093779;28;20060;-71
2023/12/15 03:20:10;;;;;;;5.07;1.92;;;9.80;70.10;;;;;;5088999;28;20107;-70
2023/12/15 03:22:37;;;;;;;2.45;1.80;;;9.80;70.00;;;;;;5092352;28;20036;-70
2023/12/15 03:25:04;;;;;;;1.85;1.73;;;9.80;69.80;;;;;;5087524;28;20544;-70
2023/12/15 03:27:29;;;;;;;0.88;0.88;;;9.70;69.90;;;;;;5091941;28;20082;-71
2023/12/15 03:29:55;;;;;;;1.33;1.23;;;9.70;70.10;;;;;;5092353;28;20437;-71
2023/12/15 03:32:20;;;;;;;1.80;1.70;;;9.70;70.20;;;;;;5092215;28;20042;-70
2023/12/15 03:34:46;;;;;;;0.95;0.95;;;9.70;70.10;;;;;;5092012;28;20027;-70
2023/12/15 03:37:11;;;;;;;1.95;1.77;;;9.70;70.20;;;;;;5083805;28;20069;-71
2023/12/15 03:39:37;;;;;;;1.63;1.38;;;9.70;70.10;;;;;;5073108;28;20029;-71
2023/12/15 03:42:06;;;;;;;1.50;1.40;;;9.70;70.10;;;;;;5083255;28;20432;-71
2023/12/15 03:44:32;;;;;;;2.08;1.98;;;9.70;70.10;;;;;;5087219;28;20039;-70
2023/12/15 03:46:58;;;;;;;1.73;1.42;;;9.70;70.30;;;;;;5091477;28;20073;-71
2023/12/15 03:49:23;;;;;;;1.45;1.35;;;9.70;70.30;;;;;;5090461;28;20040;-71
2023/12/15 03:51:48;;;;;;;2.10;1.90;;;9.80;70.30;;;;;;5091649;28;20059;-71
2023/12/15 03:54:14;;;;;;;1.38;1.27;;;9.80;70.20;;;;;;5109415;28;20042;-71
2023/12/15 03:56:39;;;;;;;4.75;1.85;;;9.80;70.20;;;;;;5112700;28;20023;-71
2023/12/15 03:59:06;;;;;;;2.33;2.13;;;9.80;70.30;;;;;;5114689;28;20043;-71
2023/12/15 04:01:31;;;;;;;1.67;1.17;;;9.80;70.40;;;;;;5092201;28;20032;-71
2023/12/15 04:03:58;;;;;;;1.15;1.15;;;9.70;70.20;;;;;;5093128;28;20067;-71
2023/12/15 04:06:24;;;;;;;0.90;0.90;;;9.70;70.30;;;;;;5093883;28;20034;-71
2023/12/15 04:08:49;;;;;;;0.73;0.73;;;9.70;70.10;;;;;;5093933;28;20486;-71
2023/12/15 04:11:18;;;;;;;3.72;2.97;;;9.70;70.20;;;;;;5093169;28;20028;-71
2023/12/15 04:13:43;;;;;;;1.52;1.42;;;9.70;70.40;;;;;;5093733;28;20028;-72
2023/12/15 04:16:09;;;;;;;1.00;1.00;;;9.60;70.40;;;;;;5093679;28;20032;-71
2023/12/15 04:18:35;;;;;;;2.28;1.52;;;9.60;70.50;;;;;;5094144;28;20040;-71
2023/12/15 04:21:03;;;;;;;1.45;1.35;;;9.60;70.50;;;;;;5101243;28;20144;-73
2023/12/15 04:23:29;;;;;;;2.03;1.77;;;9.60;70.70;;;;;;5077793;28;20105;-72
2023/12/15 04:25:57;;;;;;;0.70;0.70;;;9.60;70.60;;;;;;5097471;28;20032;-71
2023/12/15 04:28:24;;;;;;;1.73;1.13;;;9.60;70.80;;;;;;5090727;28;20081;-71
2023/12/15 04:30:49;;;;;;;0.93;0.93;;;9.60;71.00;;;;;;5094241;28;20038;-72
2023/12/15 04:33:14;;;;;;;1.23;1.13;;;9.60;71.00;;;;;;5095074;28;20118;-71
2023/12/15 04:35:40;;;;;;;0.77;0.77;;;9.70;71.10;;;;;;5091739;28;20032;-71
2023/12/15 04:38:05;;;;;;;1.00;1.00;;;9.70;70.90;;;;;;5077139;28;20032;-71
2023/12/15 04:40:31;;;;;;;0.95;0.95;;;9.70;71.00;;;;;;5073431;28;20533;-71
2023/12/15 04:42:56;;;;;;;1.67;1.20;;;9.70;71.10;;;;;;5086259;28;20032;-71
2023/12/15 04:45:22;;;;;;;1.55;1.45;;;9.70;71.10;;;;;;5092370;28;20111;-71
2023/12/15 04:47:47;;;;;;;1.17;0.98;;;9.70;71.10;;;;;;5087786;28;20034;-71
2023/12/15 04:50:13;;;;;;;0.95;0.95;;;9.80;71.20;;;;;;5091269;28;20380;-71
2023/12/15 04:52:38;;;;;;;2.13;1.63;;;9.80;71.30;;;;;;5085240;28;20036;-71
2023/12/15 04:55:04;;;;;;;0.80;0.80;;;9.80;71.20;;;;;;5092278;28;20051;-71
2023/12/15 04:57:30;;;;;;;0.70;0.70;;;9.80;71.30;;;;;;5092527;28;20427;-71
2023/12/15 04:59:55;;;;;;;4.85;1.63;;;9.80;71.30;;;;;;5099075;28;20521;-71
2023/12/15 05:02:21;;;;;;;0.90;0.85;;;9.80;71.30;;;;;;5092114;28;20024;-72
2023/12/15 05:04:46;;;;;;;1.67;1.58;;;9.90;71.40;;;;;;5092457;28;20111;-71
2023/12/15 05:07:12;;;;;;;0.93;0.93;;;9.90;71.20;;;;;;5090661;28;20032;-71
2023/12/15 05:09:37;;;;;;;0.73;0.73;;;9.90;71.30;;;;;;5090792;28;20036;-71
2023/12/15 05:12:03;;;;;;;1.35;1.25;;;9.90;71.40;;;;;;5090475;28;20032;-71
2023/12/15 05:14:28;;;;;;;0.95;0.95;;;9.90;71.20;;;;;;5092312;28;20027;-71
2023/12/15 05:16:54;;;;;;;1.17;1.08;;;9.90;71.20;;;;;;5091692;28;20456;-71
2023/12/15 05:19:19;;;;;;;0.57;0.57;;;9.90;71.40;;;;;;5089193;28;20115;-71
2023/12/15 05:21:45;;;;;;;0.98;0.98;;;10.00;71.40;;;;;;5091491;28;20043;-71
2023/12/15 05:24:10;;;;;;;2.08;1.98;;;10.00;71.30;;;;;;5090323;28;20395;-71
2023/12/15 05:26:36;;;;;;;0.88;0.88;;;10.00;71.30;;;;;;5091073;28;20165;-72
2023/12/15 05:29:01;;;;;;;1.17;1.13;;;10.00;71.20;;;;;;5098547;28;20101;-72
2023/12/15 05:31:27;;;;;;;3.45;1.00;;;10.00;71.30;;;;;;5096263;28;20043;-71
2023/12/15 05:33:52;;;;;;;4.50;2.42;;;10.00;71.30;;;;;;5095088;28;20154;-71
2023/12/15 05:36:19;;;;;;;2.70;1.98;;;10.10;71.10;;;;;;5091602;28;20036;-71
2023/12/15 05:38:46;;;;;;;1.75;1.63;;;10.00;71.10;;;;;;5088782;28;20021;-71
2023/12/15 05:41:11;;;;;;;1.00;1.00;;;10.10;71.30;;;;;;5074606;28;20107;-71
2023/12/15 05:43:37;;;;;;;0.68;0.68;;;10.10;71.40;;;;;;5091651;28;20123;-71
2023/12/15 05:46:02;;;;;;;1.05;1.05;;;10.10;71.50;;;;;;5086041;28;20028;-71
2023/12/15 05:48:28;;;;;;;2.13;1.95;;;10.10;71.40;;;;;;5102211;28;20492;-71
2023/12/15 05:50:53;;;;;;;3.35;1.85;;;10.10;71.50;;;;;;5097489;28;20116;-71
2023/12/15 05:53:19;;;;;;;1.80;1.42;;;10.20;71.40;;;;;;5092253;28;20032;-71
2023/12/15 05:55:44;;;;;;;0.88;0.88;;;10.20;71.40;;;;;;5093303;28;20062;-71
2023/12/15 05:58:10;;;;;;;1.90;1.77;;;10.20;71.40;;;;;;5091831;28;20336;-72
2023/12/15 06:00:36;;;;;;;1.33;1.30;;;10.20;71.40;;;;;;5083885;28;20525;-71
2023/12/15 06:03:01;;;;;;;1.00;1.00;;;10.30;71.50;;;;;;5094447;28;20028;-71
2023/12/15 06:05:28;;;;;;;0.88;0.88;;;10.30;71.50;;;;;;5075410;28;20042;-71
2023/12/15 06:07:53;;;;;;;0.80;0.80;;;10.30;71.60;;;;;;5093245;28;20024;-71
2023/12/15 06:10:19;;;;;;;1.65;1.55;;;10.30;71.50;;;;;;5093666;28;20028;-71
2023/12/15 06:12:45;;;;;;;1.40;1.30;;;10.40;71.50;;;;;;5093732;28;20036;-71
2023/12/15 06:15:10;;;;;;;1.45;1.38;;;10.40;71.50;;;;;;5094444;28;20103;-71
2023/12/15 06:17:36;;;;;;;0.68;0.68;;;10.50;71.60;;;;;;5094613;28;20035;-71
2023/12/15 06:20:02;;;;;;;0.65;0.65;;;10.50;71.60;;;;;;5099706;28;20472;-71
2023/12/15 06:22:27;;;;;;;1.17;1.08;;;10.50;71.40;;;;;;5081719;28;20031;-71
2023/12/15 06:24:53;;;;;;;0.80;0.80;;;10.50;71.30;;;;;;5107944;28;20047;-71
2023/12/15 06:27:18;;;;;;;0.40;0.40;;;10.50;71.30;;;;;;5090254;28;20035;-71
2023/12/15 06:29:44;;;;;;;3.33;1.58;;;10.50;71.40;;;;;;5093989;28;20402;-71
2023/12/15 06:32:10;;;;;;;0.95;0.95;;;10.60;71.50;;;;;;5092639;28;20040;-71
2023/12/15 06:34:37;;;;;;;1.85;1.75;;;10.70;71.50;;;;;;5091254;28;20036;-71
2023/12/15 06:37:02;;;;;;;0.80;0.80;;;10.70;71.40;;;;;;5069913;28;20113;-71
2023/12/15 06:39:28;;;;;;;1.58;1.48;;;10.70;71.40;;;;;;5091722;28;20123;-71
2023/12/15 06:41:53;;;;;;;3.15;1.80;;;10.70;71.40;;;;;;5090573;28;20561;-71
2023/12/15 06:44:19;;;;;;;1.55;1.45;;;10.70;71.30;;;;;;5092861;28;20031;-71
2023/12/15 06:46:46;;;;;;;0.70;0.70;;;10.70;71.40;;;;;;5087892;28;20075;-71
2023/12/15 06:49:11;;;;;;;2.03;1.15;;;10.70;71.40;;;;;;5087286;28;20505;-71
2023/12/15 06:51:37;;;;;;;0.90;0.90;;;10.80;71.40;;;;;;5092509;28;20107;-71
2023/12/15 06:54:02;;;;;;;0.80;0.80;;;10.80;71.40;;;;;;5084593;28;20471;-71
2023/12/15 06:56:28;;;;;;;1.10;1.10;;;10.80;71.30;;;;;;5092450;28;20020;-71
2023/12/15 06:58:53;;;;;;;1.45;1.35;;;10.80;71.30;;;;;;5091092;28;20472;-71
2023/12/15 07:01:19;;;;;;;2.45;1.67;;;10.80;71.20;;;;;;5090279;28;20024;-71
2023/12/15 07:03:45;;;;;;;1.80;1.67;;;10.80;71.30;;;;;;5064334;28;20043;-71
2023/12/15 07:06:11;;;;;;;1.60;1.50;;;10.80;71.30;;;;;;5085075;28;20070;-71
2023/12/15 07:08:37;;;;;;;0.80;0.80;;;10.80;71.30;;;;;;5077507;28;20491;-71
2023/12/15 07:11:02;;;;;;;0.70;0.70;;;10.80;71.50;;;;;;5073095;28;20028;-71
2023/12/15 07:13:28;;;;;;;1.65;1.55;;;10.90;71.50;;;;;;5089916;28;20077;-71
2023/12/15 07:15:53;;;;;;;0.85;0.85;;;10.90;71.50;;;;;;5092237;28;20031;-71
2023/12/15 07:18:19;;;;;;;0.50;0.50;;;10.90;71.40;;;;;;5090793;28;20024;-71
2023/12/15 07:20:44;;;;;;;0.98;0.98;;;10.90;71.50;;;;;;5087412;28;20470;-71
2023/12/15 07:23:10;;;;;;;0.95;0.95;;;10.90;71.40;;;;;;5089269;28;20043;-71
2023/12/15 07:25:37;;;;;;;1.02;1.02;;;11.00;71.30;;;;;;5091687;28;20028;-71
2023/12/15 07:28:04;;;;;;;1.38;1.27;;;11.00;71.40;;;;;;5092885;28;20028;-71
2023/12/15 07:30:29;;;;;;;0.73;0.73;;;11.00;71.30;;;;;;5092484;28;20524;-71
2023/12/15 07:32:54;;;;;;;3.50;1.85;;;11.00;71.30;;;;;;5092753;28;20115;-71
2023/12/15 07:35:20;;;;;;;3.38;2.42;;;11.00;71.40;;;;;;5091376;28;20387;-71
2023/12/15 07:37:45;;;;;;;1.38;1.27;;;11.00;71.40;;;;;;5092319;28;20052;-71
2023/12/15 07:40:12;;;;;;;2.47;2.28;;;11.00;71.50;;;;;;5092843;28;20028;-71
2023/12/15 07:42:37;;;;;;;2.63;2.42;;;11.00;71.40;;;;;;5092325;28;20024;-71
2023/12/15 07:45:03;;;;;;;0.65;0.65;;;11.00;71.50;;;;;;5092856;28;20030;-71
2023/12/15 07:47:29;;;;;;;0.55;0.55;;;11.00;71.50;;;;;;5092631;28;20036;-71
2023/12/15 07:49:54;;;;;;;1.50;1.40;;;11.10;71.50;;;;;;5091294;28;20523;-71
2023/12/15 07:52:20;;;;;;;1.88;1.73;;;11.10;71.40;;;;;;5091520;28;20020;-71
2023/12/15 07:54:45;;;;;;;1.58;1.48;;;11.00;71.40;;;;;;5092432;28;20372;-71
2023/12/15 07:57:12;;;;;;;0.80;0.80;;;11.00;71.40;;;;;;5093147;28;20024;-71
2023/12/15 07:59:39;;;;;;;1.42;1.35;;;11.10;71.30;;;;;;5074826;28;20028;-70
2023/12/15 08:02:05;;;;;;;1.45;1.35;;;11.10;71.30;;;;;;5072290;28;20594;-70
2023/12/15 08:04:31;;;;;;;1.13;1.13;;;11.10;71.40;;;;;;5071225;28;20047;-71
2023/12/15 08:06:56;;;;;;;1.40;1.33;;;11.10;71.50;;;;;;5090779;28;20519;-70
2023/12/15 08:09:22;;;;;;;0.80;0.80;;;11.10;71.50;;;;;;5091032;28;20040;-70
2023/12/15 08:11:48;;;;;;;1.33;1.30;;;11.10;71.60;;;;;;5090069;28;20143;-70
2023/12/15 08:14:13;;;;;;;0.95;0.93;;;11.10;71.50;;;;;;5091137;28;20084;-71
2023/12/15 08:16:39;;;;;;;2.72;1.58;;;11.10;71.60;;;;;;5072288;28;20031;-70
2023/12/15 08:19:07;;;;;;;0.95;0.93;;;11.10;71.60;;;;;;5091042;28;20027;-71
2023/12/15 08:21:33;;;;;;;1.05;0.88;;;11.10;71.70;;;;;;5090510;28;20067;-71
2023/12/15 08:23:58;;;;;;;1.35;1.15;;;11.20;71.80;;;;;;5089660;28;20040;-71
2023/12/15 08:26:28;;;;;;;1.40;1.23;;;11.20;71.80;;;;;;5089931;28;20375;-71
2023/12/15 08:28:54;;;;;;;1.85;1.50;;;11.20;71.80;;;;;;5091190;28;20378;-70
2023/12/15 08:31:21;;;;;;;1.95;1.23;;;11.20;71.80;;;;;;5090200;28;20024;-71
2023/12/15 08:33:47;;;;;;;0.70;0.70;;;11.20;71.80;;;;;;5090724;28;20059;-71
2023/12/15 08:36:12;;;;;;;2.72;1.98;;;11.30;71.80;;;;;;5090101;28;20070;-71
2023/12/15 08:38:38;;;;;;;0.80;0.80;;;11.30;71.70;;;;;;5090728;28;20082;-71
2023/12/15 08:41:04;;;;;;;1.00;1.00;;;11.30;71.80;;;;;;5090564;28;20097;-71
2023/12/15 08:43:29;;;;;;;0.60;0.60;;;11.30;71.90;;;;;;5089575;28;20040;-71
2023/12/15 08:45:55;;;;;;;0.90;0.90;;;11.40;71.90;;;;;;5089958;28;20103;-71
2023/12/15 08:48:20;;;;;;;0.93;0.93;;;11.40;72.00;;;;;;5090717;28;20032;-71
2023/12/15 08:50:46;;;;;;;4.20;1.83;;;11.40;72.10;;;;;;5090044;28;20036;-72
2023/12/15 08:53:16;;;;;;;0.80;0.80;;;11.50;72.10;;;;;;5090541;28;20657;-71
2023/12/15 08:55:41;;;;;;;2.50;1.70;;;11.50;72.10;;;;;;5090439;28;20070;-71
2023/12/15 08:58:07;;;;;;;0.50;0.50;;;11.60;72.20;;;;;;5089832;28;20483;-71
2023/12/15 09:00:32;;;;;;;0.70;0.70;;;11.60;72.10;;;;;;5090045;28;20042;-71
2023/12/15 09:02:58;;;;;;;0.70;0.70;;;11.70;72.00;;;;;;5091233;28;20426;-71
2023/12/15 09:05:24;;;;;;;0.90;0.90;;;11.70;72.00;;;;;;5094402;28;20024;-71
2023/12/15 09:07:53;;;;;;;2.72;1.25;;;11.70;72.00;;;;;;5092957;28;20103;-71
2023/12/15 09:10:20;;;;;;;1.52;1.42;;;11.70;72.10;;;;;;5077179;28;20027;-72
2023/12/15 09:12:46;;;;;;;1.75;1.42;;;11.80;72.10;;;;;;5097701;28;20032;-72
2023/12/15 09:15:12;;;;;;;2.33;2.10;;;11.80;72.00;;;;;;5096940;28;20173;-72
2023/12/15 09:17:38;;;;;;;1.05;0.75;;;11.80;71.90;;;;;;5097004;28;20119;-72
2023/12/15 09:20:04;;;;;;;0.80;0.77;;;11.90;71.70;;;;;;5097177;28;20133;-73
2023/12/15 09:22:30;;;;;;;0.63;0.63;;;11.90;71.90;;;;;;5096950;28;20034;-72
2023/12/15 09:24:56;;;;;;;0.93;0.93;;;11.90;71.90;;;;;;5098087;28;20084;-72
2023/12/15 09:27:21;;;;;;;2.83;1.65;;;11.90;72.20;;;;;;5079899;28;20052;-72
2023/12/15 09:29:47;;;;;;;0.75;0.75;;;12.00;72.00;;;;;;5096056;28;20040;-73
2023/12/15 09:32:12;;;;;;;0.68;0.68;;;12.00;72.10;;;;;;5097917;28;20032;-73
2023/12/15 09:34:38;;;;;;;1.33;1.20;;;12.10;72.10;;;;;;5093150;28;20042;-73
2023/12/15 09:37:03;;;;;;;1.52;1.45;;;12.10;72.20;;;;;;5077289;28;20020;-73
2023/12/15 09:39:29;;;;;;;1.05;1.02;;;12.20;72.00;;;;;;5093918;28;20083;-73
2023/12/15 09:41:55;;;;;;;0.90;0.90;;;12.20;72.00;;;;;;5065223;28;20103;-72
2023/12/15 09:44:20;;;;;;;1.10;1.00;;;12.20;72.10;;;;;;5089683;28;20029;-72
2023/12/15 09:46:46;;;;;;;4.15;0.88;;;12.20;72.10;;;;;;5078265;28;20501;-72
2023/12/15 09:49:17;;;;;;;1.52;1.42;;;12.20;72.00;;;;;;5078620;28;20029;-72
2023/12/15 09:51:52;;;;;;;1.02;1.00;;;12.30;72.00;;;;;;5078902;28;20039;-72
2023/12/15 09:54:20;;;;;;;0.63;0.63;;;12.30;72.00;;;;;;5078778;28;20052;-72
2023/12/15 09:56:49;;;;;;;2.63;1.48;;;12.30;72.00;;;;;;5089629;28;20482;-72
2023/12/15 09:59:17;;;;;;;1.25;1.15;;;12.30;72.00;;;;;;5087050;28;20048;-73
2023/12/15 10:01:42;;;;;;;0.80;0.80;;;12.30;71.70;;;;;;5079950;28;20127;-72
2023/12/15 10:04:08;;;;;;;0.82;0.82;;;12.30;71.90;;;;;;5098538;28;20432;-72
2023/12/15 10:06:37;;;;;;;0.93;0.93;;;12.40;72.10;;;;;;5098717;28;20032;-72
2023/12/15 10:09:12;;;;;;;1.15;0.85;;;12.40;72.20;;;;;;5097474;28;20479;-72
2023/12/15 10:11:39;;;;;;;1.35;1.25;;;12.50;72.20;;;;;;5097122;28;20059;-72
2023/12/15 10:14:07;;;;;;;0.90;0.90;;;12.50;72.10;;;;;;5094880;28;20089;-72
2023/12/15 10:16:37;;;;;;;1.52;1.42;;;12.50;71.90;;;;;;5097045;28;20020;-73
2023/12/15 10:19:04;;;;;;;0.70;0.70;;;12.50;71.90;;;;;;5096025;28;20032;-73
2023/12/15 10:21:31;;;;;;;0.50;0.50;;;12.50;71.80;;;;;;5092947;28;20028;-73
2023/12/15 10:23:57;;;;;;;0.70;0.70;;;12.50;71.90;;;;;;5096230;28;20032;-73
2023/12/15 10:26:22;;;;;;;0.50;0.50;;;12.50;71.90;;;;;;5095663;28;20115;-73
2023/12/15 10:28:48;;;;;;;0.80;0.80;;;12.50;72.00;;;;;;5095529;28;20060;-73
2023/12/15 10:31:14;;;;;;;0.75;0.75;;;12.50;71.90;;;;;;5094705;28;20032;-72
2023/12/15 10:33:40;;;;;;;2.88;1.70;;;12.50;72.10;;;;;;5095552;28;20395;-72
2023/12/15 10:36:08;;;;;;;0.80;0.80;;;12.60;72.10;;;;;;5094678;28;20062;-72
2023/12/15 10:38:34;;;;;;;0.63;0.63;;;12.60;72.20;;;;;;5095050;28;20028;-72
2023/12/15 10:41:00;;;;;;;0.77;0.77;;;12.70;72.30;;;;;;5075996;28;20537;-72
2023/12/15 10:43:26;;;;;;;0.45;0.45;;;12.70;72.20;;;;;;5094286;28;20036;-72
2023/12/15 10:45:53;;;;;;;0.50;0.50;;;12.70;72.20;;;;;;5077089;28;20383;-72
2023/12/15 10:48:19;;;;;;;0.60;0.60;;;12.80;72.30;;;;;;5094485;28;20040;-72
2023/12/15 10:50:46;;;;;;;0.70;0.70;;;12.80;72.40;;;;;;5096042;28;20039;-72
2023/12/15 10:53:15;;;;;;;1.60;1.38;;;12.90;72.50;;;;;;5096297;28;20122;-72
2023/12/15 10:55:46;;;;;;;1.70;1.55;;;13.00;72.30;;;;;;5096454;28;20072;-74
2023/12/15 10:58:12;;;;;;;0.60;0.60;;;13.10;72.50;;;;;;5093094;28;20691;-74
2023/12/15 11:00:39;;;;;;;0.95;0.95;;;13.20;72.50;;;;;;5089611;28;20037;-73
2023/12/15 11:03:10;;;;;;;0.75;0.75;;;13.20;72.20;;;;;;5075937;28;20033;-71
2023/12/15 11:05:37;;;;;;;1.95;1.85;;;13.30;72.50;;;;;;5085108;28;20024;-71
2023/12/15 11:08:03;;;;;;;1.23;1.17;;;13.40;72.70;;;;;;5096158;28;20024;-74
2023/12/15 11:10:28;;;;;;;1.13;1.02;;;13.50;72.70;;;;;;5097298;28;20024;-72
2023/12/15 11:12:54;;;;;;;0.40;0.40;;;13.60;72.60;;;;;;5096396;28;20027;-72
2023/12/15 11:15:22;;;;;;;0.98;0.95;;;13.80;72.90;;;;;;5096873;28;20387;-72
2023/12/15 11:17:53;;;;;;;0.77;0.77;;;14.00;73.10;;;;;;5064124;28;20032;-72
2023/12/15 11:20:18;;;;;;;;;;;14.20;73.30;;;;;;5062444;28;20017;-72
2023/12/15 11:22:58;;;;;;;0.73;0.73;;;14.30;73.20;;;;;;5098669;28;20490;-72
2023/12/15 11:25:30;;;;;;;2.28;2.13;;;14.50;73.10;;;;;;5099031;28;20050;-71
2023/12/15 11:28:28;;;;;;;2.03;1.85;;;14.50;73.00;;;;;;5099477;28;20031;-72
2023/12/15 11:30:53;;;;;;;1.40;1.30;;;14.50;72.90;;;;;;5050780;28;20525;-70
2023/12/15 11:33:31;;;;;;;0.95;0.93;;;14.50;72.50;;;;;;5091918;28;20027;-70
2023/12/15 11:36:06;;;;;;;3.10;2.15;;;14.50;72.50;;;;;;5091717;28;20016;-72
2023/12/15 11:38:32;;;;;;;1.02;0.93;;;14.40;72.10;;;;;;5091558;28;20028;-71
2023/12/15 11:40:59;;;;;;;2.83;1.63;;;14.40;72.20;;;;;;5091597;28;20463;-71
2023/12/15 11:43:25;;;;;;;0.50;0.50;;;14.40;72.60;;;;;;5056826;28;20070;-72
2023/12/15 11:45:52;;;;;;;1.65;1.33;;;14.40;72.40;;;;;;5071171;28;20021;-71
2023/12/15 11:48:18;;;;;;;0.77;0.77;;;14.40;72.30;;;;;;5071400;28;20040;-71
2023/12/15 11:50:44;;;;;;;1.42;1.33;;;14.40;72.00;;;;;;5071127;28;20021;-69
2023/12/15 11:53:12;;;;;;;2.17;1.33;;;14.30;71.80;;;;;;5071256;28;20039;-72
2023/12/15 11:55:40;;;;;;;1.08;1.08;;;14.30;71.80;;;;;;5088672;28;20522;-71
2023/12/15 11:58:06;;;;;;;1.80;1.58;;;14.30;71.60;;;;;;5071783;28;20017;-71
2023/12/15 12:00:35;;;;;;;1.90;1.42;;;14.30;71.50;;;;;;5076209;28;20386;-71
2023/12/15 12:03:00;;;;;;;2.58;1.30;;;14.20;71.50;;;;;;5066464;28;20044;-71
2023/12/15 12:05:30;;;;;;;6.53;1.13;;;14.10;71.60;;;;;;5087874;28;20098;-71
2023/12/15 12:08:00;;;;;;;2.00;1.88;;;14.10;71.20;;;;;;5088002;28;20044;-71
2023/12/15 12:10:32;;;;;;;2.15;1.33;;;14.00;71.20;;;;;;5088028;28;20418;-68
2023/12/15 12:12:58;;;;;;;2.60;2.17;;;14.00;71.50;;;;;;5080405;28;20467;-68
2023/12/15 12:15:24;;;;;;;1.10;1.10;;;14.00;71.90;;;;;;5080557;28;20036;-70
2023/12/15 12:17:50;;;;;;;1.50;1.40;;;14.00;71.60;;;;;;5070895;28;20533;-68
2023/12/15 12:20:16;;;;;;;1.77;1.63;;;14.00;71.70;;;;;;5070635;28;20024;-70
2023/12/15 12:22:43;;;;;;;1.33;1.23;;;14.00;71.60;;;;;;5070806;28;20384;-71
2023/12/15 12:25:13;;;;;;;0.60;0.60;;;13.90;71.60;;;;;;5070879;28;20025;-70
2023/12/15 12:27:40;;;;;;;0.70;0.70;;;13.80;71.50;;;;;;5081524;28;20446;-68
2023/12/15 12:30:16;;;;;;;0.63;0.63;;;13.80;71.60;;;;;;5091136;28;20487;-69
2023/12/15 12:32:43;;;;;;;1.20;1.17;;;13.80;71.40;;;;;;5079870;28;20115;-68
2023/12/15 12:35:09;;;;;;;1.63;1.48;;;13.80;71.50;;;;;;5073273;28;20067;-71
2023/12/15 12:37:35;;;;;;;0.80;0.80;;;13.80;71.70;;;;;;5071714;28;20459;-70
2023/12/15 12:40:09;;;;;;;1.73;1.63;;;13.80;71.60;;;;;;5076165;28;20073;-73
2023/12/15 12:42:35;;;;;;;0.98;0.98;;;13.80;71.50;;;;;;5094911;28;20054;-73
2023/12/15 12:45:01;;;;;;;1.02;1.02;;;13.70;71.60;;;;;;5099899;28;20032;-73